Terminal Aerodrome Forecast
Issued by NWS Binghamton, NY

Current Version | Previous Version | Text Only | Print | Product List | Glossary On
Versions: 1 2 3 4 5 6 7 8 9 10 11 12 13 14 15 16 17
000
FTUS41 KBGM 111132
TAFAVP
TAF
KAVP 111132Z 1112/1212 23006KT P6SM BKN050
     FM111400 27008KT P6SM SCT060
     FM112200 19004KT P6SM BKN050
     FM120700 16007KT 3SM -SN OVC025
     FM121100 16008KT 2SM -SN OVC015=

USA.gov is the U.S. government's official web portal to all federal, state and local government web resources and services.